Time;durP1;ratioP1;P1;durP2;ratioP2;P2;SDS_P1;SDS_P2;PMS_P1;PMS_P2;Temp;Humidity;BMP_temperature;BMP_pressure;BME280_temperature;BME280_humidity;BME280_pressure;Samples;Min_cycle;Max_cycle;Signal;HPM_P1;HPM_P2
2022/03/11 04:01:25;;;;;;;19.60;15.63;;;1.40;99.90;;;;;;5447960;23;20244;-77
2022/03/11 04:03:50;;;;;;;19.67;15.80;;;1.30;99.90;;;;;;4954402;29;20178;-77
2022/03/11 04:06:16;;;;;;;24.47;16.60;;;1.30;99.90;;;;;;4955543;29;20665;-77
2022/03/11 04:08:42;;;;;;;23.67;16.57;;;1.30;99.90;;;;;;4954452;29;20178;-77
2022/03/11 04:11:08;;;;;;;20.97;14.63;;;1.40;99.90;;;;;;4953817;29;20627;-77
2022/03/11 04:13:34;;;;;;;22.17;15.33;;;1.40;99.90;;;;;;4955029;28;20648;-77
2022/03/11 04:16:00;;;;;;;31.50;19.47;;;1.30;99.90;;;;;;4954013;29;20185;-76
2022/03/11 04:18:25;;;;;;;31.50;20.10;;;1.30;99.90;;;;;;4953077;29;20185;-76
2022/03/11 04:20:51;;;;;;;24.93;17.87;;;1.20;99.90;;;;;;4953751;29;20220;-77
2022/03/11 04:23:17;;;;;;;26.90;18.97;;;1.10;99.90;;;;;;4955335;29;20186;-77
2022/03/11 04:25:42;;;;;;;29.40;17.70;;;1.00;99.90;;;;;;4956380;29;20237;-77
2022/03/11 04:28:08;;;;;;;31.00;18.20;;;0.90;99.90;;;;;;4954649;29;20221;-77
2022/03/11 04:30:34;;;;;;;24.20;16.60;;;0.80;99.90;;;;;;4953479;29;20206;-77
2022/03/11 04:33:00;;;;;;;23.27;16.03;;;0.70;99.90;;;;;;4955893;29;20252;-77
2022/03/11 04:35:25;;;;;;;24.07;17.20;;;0.60;99.90;;;;;;4955884;29;20209;-77
2022/03/11 04:37:51;;;;;;;23.03;17.60;;;0.60;99.90;;;;;;4954967;29;20638;-77
2022/03/11 04:40:17;;;;;;;20.27;16.27;;;0.60;99.90;;;;;;4955152;29;20240;-77
2022/03/11 04:42:43;;;;;;;22.63;17.03;;;0.60;99.90;;;;;;4953545;29;20210;-76
2022/03/11 04:45:10;;;;;;;18.93;14.77;;;0.50;99.90;;;;;;4953411;29;20188;-77
2022/03/11 04:47:36;;;;;;;27.43;16.70;;;0.40;99.90;;;;;;4954474;29;20209;-77
2022/03/11 04:50:02;;;;;;;20.40;16.03;;;0.40;99.90;;;;;;4953157;29;20185;-77
2022/03/11 04:52:27;;;;;;;21.50;16.57;;;0.40;99.90;;;;;;4953630;28;20206;-77
2022/03/11 04:54:53;;;;;;;20.53;15.83;;;0.40;99.90;;;;;;4952943;29;20182;-76
2022/03/11 04:57:19;;;;;;;21.27;16.53;;;0.20;99.90;;;;;;4954635;29;20181;-77
2022/03/11 04:59:45;;;;;;;21.07;14.70;;;0.10;99.90;;;;;;4956735;29;20554;-77
2022/03/11 05:02:10;;;;;;;16.93;14.53;;;0.10;99.90;;;;;;4953744;28;20217;-75
2022/03/11 05:04:36;;;;;;;23.90;14.83;;;0.10;99.90;;;;;;4954428;29;20186;-77
2022/03/11 05:07:04;;;;;;;11.90;10.83;;;0.00;99.90;;;;;;4953012;29;20190;-76
2022/03/11 05:09:30;;;;;;;15.40;13.90;;;0.10;99.90;;;;;;4953112;29;20205;-75
2022/03/11 05:11:56;;;;;;;15.23;13.60;;;0.20;99.90;;;;;;4953654;29;20296;-76
2022/03/11 05:14:22;;;;;;;15.37;13.37;;;0.20;99.90;;;;;;4955056;29;20294;-78
2022/03/11 05:16:47;;;;;;;17.73;13.43;;;0.20;99.90;;;;;;4959615;29;20262;-77
2022/03/11 05:19:13;;;;;;;20.27;13.37;;;0.10;99.90;;;;;;4957748;29;20193;-77
2022/03/11 05:21:39;;;;;;;14.13;12.47;;;0.20;99.90;;;;;;4956990;29;20205;-78
2022/03/11 05:24:05;;;;;;;12.90;11.37;;;0.20;99.90;;;;;;4955836;29;20198;-78
2022/03/11 05:26:31;;;;;;;15.47;12.07;;;0.20;99.90;;;;;;4951567;28;20198;-79
2022/03/11 05:28:58;;;;;;;14.37;12.07;;;0.20;99.90;;;;;;4948337;28;20634;-79
2022/03/11 05:31:26;;;;;;;12.80;11.37;;;0.20;99.90;;;;;;4945237;28;20214;-78
2022/03/11 05:33:52;;;;;;;15.83;13.57;;;0.30;99.90;;;;;;4946570;28;20206;-79
2022/03/11 05:36:19;;;;;;;20.37;15.20;;;0.30;99.90;;;;;;4954040;28;20228;-77
2022/03/11 05:38:44;;;;;;;22.20;14.17;;;0.30;99.90;;;;;;4976471;28;20645;-75
2022/03/11 05:41:10;;;;;;;17.30;13.97;;;0.10;99.90;;;;;;4969618;28;20209;-74
2022/03/11 05:43:36;;;;;;;17.37;13.73;;;0.10;99.90;;;;;;4955811;29;20208;-77
2022/03/11 05:46:03;;;;;;;21.37;12.90;;;0.00;99.90;;;;;;4956634;28;20177;-75
2022/03/11 05:48:29;;;;;;;13.60;12.33;;;-0.10;99.90;;;;;;4956723;28;20181;-75
2022/03/11 05:50:55;;;;;;;16.77;13.33;;;-0.10;99.90;;;;;;4953983;28;20212;-75
2022/03/11 05:53:21;;;;;;;18.70;13.13;;;0.10;99.90;;;;;;4953535;29;20269;-75
2022/03/11 05:55:47;;;;;;;20.53;14.47;;;-0.10;99.90;;;;;;4953527;29;20204;-75
2022/03/11 05:58:12;;;;;;;15.97;13.40;;;-0.10;99.90;;;;;;4951646;29;20188;-75
2022/03/11 06:00:38;;;;;;;17.17;13.30;;;-0.10;99.90;;;;;;4953024;28;20244;-74
2022/03/11 06:03:04;;;;;;;17.80;13.40;;;-0.10;99.90;;;;;;4953112;28;20702;-72
2022/03/11 06:05:30;;;;;;;18.17;13.00;;;0.00;99.90;;;;;;4951738;29;20289;-71
2022/03/11 06:07:56;;;;;;;10.67;9.43;;;0.00;99.90;;;;;;4952302;28;20534;-68
2022/03/11 06:10:22;;;;;;;15.87;11.20;;;0.20;99.90;;;;;;4951451;29;20211;-66
2022/03/11 06:12:47;;;;;;;13.77;11.43;;;0.40;99.90;;;;;;4952392;28;20201;-70
2022/03/11 06:15:15;;;;;;;16.20;11.70;;;0.70;99.60;;;;;;4951089;28;20186;-70
2022/03/11 06:17:41;;;;;;;13.97;11.37;;;0.80;97.50;;;;;;4948158;29;20178;-70
2022/03/11 06:20:09;;;;;;;13.47;11.27;;;0.80;97.50;;;;;;4933720;29;20186;-70
2022/03/11 06:22:46;;;;;;;13.83;10.53;;;0.90;97.00;;;;;;4932426;29;20202;-69
2022/03/11 06:25:12;;;;;;;13.87;11.57;;;0.90;97.60;;;;;;4940023;29;20248;-70
2022/03/11 06:27:38;;;;;;;12.53;11.27;;;1.00;97.30;;;;;;4952505;28;20190;-70
2022/03/11 06:30:04;;;;;;;20.00;11.63;;;1.10;97.70;;;;;;4953358;29;20189;-69
2022/03/11 06:32:30;;;;;;;12.20;10.37;;;1.10;98.20;;;;;;4952974;28;20228;-70
2022/03/11 06:34:56;;;;;;;13.40;10.40;;;1.10;97.10;;;;;;4952833;29;20185;-69
2022/03/11 06:37:21;;;;;;;13.73;11.57;;;1.10;97.00;;;;;;4950978;28;20560;-70
2022/03/11 06:39:47;;;;;;;14.50;10.83;;;1.30;97.30;;;;;;4951167;29;20272;-70
2022/03/11 06:42:13;;;;;;;15.57;10.67;;;1.40;96.80;;;;;;4952348;29;20435;-76
2022/03/11 06:44:39;;;;;;;12.00;10.50;;;1.50;95.70;;;;;;4953089;29;20185;-69
2022/03/11 06:47:05;;;;;;;11.67;10.47;;;1.60;94.70;;;;;;4951348;29;20193;-68
2022/03/11 06:49:30;;;;;;;11.67;10.53;;;1.70;93.30;;;;;;4952807;28;20194;-68
2022/03/11 06:51:56;;;;;;;13.13;10.13;;;1.90;92.40;;;;;;4952396;29;20229;-70
2022/03/11 06:54:22;;;;;;;12.67;10.20;;;2.00;91.70;;;;;;4951836;29;20189;-69
2022/03/11 06:56:48;;;;;;;11.97;10.37;;;2.20;91.30;;;;;;4951817;29;20178;-70
2022/03/11 06:59:14;;;;;;;11.97;9.77;;;2.40;90.70;;;;;;4947252;29;20282;-69
2022/03/11 07:01:40;;;;;;;11.60;10.37;;;2.50;90.00;;;;;;4932253;29;20222;-69
2022/03/11 07:04:06;;;;;;;11.23;10.20;;;2.70;89.40;;;;;;4943193;28;20192;-70
2022/03/11 07:06:31;;;;;;;13.90;12.70;;;3.10;88.80;;;;;;4952238;28;20205;-67
2022/03/11 07:08:57;;;;;;;13.63;12.23;;;3.80;85.70;;;;;;4938173;29;20186;-68
2022/03/11 07:11:23;;;;;;;11.33;10.10;;;4.40;82.10;;;;;;4952945;29;20213;-68
2022/03/11 07:13:49;;;;;;;13.40;9.57;;;4.60;79.00;;;;;;4951450;29;20189;-68
2022/03/11 07:16:15;;;;;;;10.57;9.40;;;4.60;77.00;;;;;;4953069;28;20186;-68
2022/03/11 07:18:41;;;;;;;10.77;9.67;;;4.90;76.70;;;;;;4954666;29;20182;-68
2022/03/11 07:21:07;;;;;;;11.37;10.17;;;5.10;75.00;;;;;;4954332;29;20210;-68
2022/03/11 07:23:33;;;;;;;12.60;11.30;;;5.60;73.40;;;;;;4955844;29;20199;-68
2022/03/11 07:25:59;;;;;;;12.43;11.43;;;5.90;71.60;;;;;;4955848;29;20639;-67
2022/03/11 07:28:27;;;;;;;12.50;9.63;;;6.10;69.90;;;;;;4954232;29;20182;-70
2022/03/11 07:30:53;;;;;;;10.40;9.50;;;6.00;68.50;;;;;;4954417;29;20212;-70
2022/03/11 07:33:19;;;;;;;10.47;9.40;;;6.00;67.90;;;;;;4954524;29;20221;-69
2022/03/11 07:35:45;;;;;;;10.70;9.53;;;5.90;67.80;;;;;;4954301;29;20190;-70
2022/03/11 07:38:10;;;;;;;14.03;10.20;;;5.70;67.90;;;;;;4955396;28;20248;-70
2022/03/11 07:40:36;;;;;;;10.97;9.87;;;5.50;67.90;;;;;;4955463;29;20655;-70
2022/03/11 07:43:02;;;;;;;11.27;10.07;;;5.60;68.10;;;;;;4955606;29;20252;-69
2022/03/11 07:45:28;;;;;;;12.00;8.70;;;5.80;68.10;;;;;;4948622;29;20237;-69
2022/03/11 07:47:54;;;;;;;10.37;9.37;;;5.70;67.50;;;;;;4935811;29;20669;-70
2022/03/11 07:50:19;;;;;;;12.27;9.70;;;6.00;67.30;;;;;;4955287;29;20185;-70
2022/03/11 07:52:45;;;;;;;10.93;9.87;;;5.90;67.00;;;;;;4955684;29;20245;-69
2022/03/11 07:55:11;;;;;;;11.63;10.40;;;6.10;66.90;;;;;;4955467;29;20588;-70
2022/03/11 07:57:39;;;;;;;10.57;9.57;;;6.20;66.90;;;;;;4954871;28;20182;-70
2022/03/11 08:00:08;;;;;;;11.80;9.47;;;6.60;65.40;;;;;;4955087;28;20185;-70
2022/03/11 08:02:35;;;;;;;9.73;8.87;;;6.60;64.10;;;;;;4954974;28;20316;-69
2022/03/11 08:05:01;;;;;;;11.67;9.90;;;6.40;64.50;;;;;;4955304;28;20579;-69
2022/03/11 08:07:27;;;;;;;12.67;11.30;;;6.30;64.50;;;;;;4955880;28;20661;-70
2022/03/11 08:09:53;;;;;;;12.27;10.80;;;6.40;65.50;;;;;;4955384;29;20196;-70
2022/03/11 08:12:19;;;;;;;10.40;9.30;;;6.70;64.90;;;;;;4954946;29;20249;-69
2022/03/11 08:14:46;;;;;;;9.40;8.50;;;6.90;64.20;;;;;;4955070;28;20225;-70
2022/03/11 08:17:12;;;;;;;9.67;8.50;;;7.00;62.80;;;;;;4954359;29;20274;-70
2022/03/11 08:19:37;;;;;;;10.57;8.80;;;7.00;62.60;;;;;;4954613;28;20276;-71
2022/03/11 08:22:04;;;;;;;9.70;8.80;;;7.20;63.00;;;;;;4953670;29;20213;-71
2022/03/11 08:24:29;;;;;;;9.20;8.27;;;7.10;62.40;;;;;;4954876;28;20557;-71
2022/03/11 08:26:56;;;;;;;9.73;8.83;;;7.10;63.50;;;;;;4951726;29;20189;-71
2022/03/11 08:29:23;;;;;;;9.20;8.30;;;7.00;62.50;;;;;;4954356;28;20177;-70
2022/03/11 08:31:49;;;;;;;14.17;9.27;;;7.00;63.20;;;;;;4954654;28;20213;-70
2022/03/11 08:34:15;;;;;;;10.77;9.30;;;7.30;62.50;;;;;;4954844;28;20585;-70
2022/03/11 08:36:41;;;;;;;13.50;9.97;;;7.80;61.90;;;;;;4954525;29;20181;-71
2022/03/11 08:39:07;;;;;;;8.73;7.83;;;8.30;60.20;;;;;;4952680;28;20272;-69
2022/03/11 08:41:33;;;;;;;9.50;8.67;;;8.00;59.60;;;;;;4953927;28;20300;-71
2022/03/11 08:44:00;;;;;;;11.80;10.23;;;7.80;60.10;;;;;;4953276;29;20284;-69
2022/03/11 08:46:29;;;;;;;14.03;9.43;;;7.60;61.20;;;;;;4954210;28;20209;-69
2022/03/11 08:48:55;;;;;;;8.23;7.43;;;7.90;60.90;;;;;;4952885;29;20269;-70
2022/03/11 08:51:21;;;;;;;11.40;8.57;;;8.00;59.80;;;;;;4954722;29;20239;-70
2022/03/11 08:53:48;;;;;;;10.27;8.47;;;7.60;60.50;;;;;;4956009;28;20710;-70
2022/03/11 08:56:15;;;;;;;10.57;9.57;;;7.80;61.30;;;;;;4954220;29;20186;-71
2022/03/11 08:58:46;;;;;;;14.07;9.27;;;8.10;60.20;;;;;;4954048;29;20174;-70
2022/03/11 09:01:11;;;;;;;10.13;9.13;;;8.40;60.00;;;;;;4953887;28;20312;-70
2022/03/11 09:03:37;;;;;;;10.73;9.37;;;8.50;59.60;;;;;;4941311;29;20186;-69
2022/03/11 09:06:03;;;;;;;10.30;8.37;;;8.40;59.40;;;;;;4935666;29;20186;-69
2022/03/11 09:08:29;;;;;;;10.97;8.43;;;8.40;59.40;;;;;;4939029;29;20186;-69
2022/03/11 09:10:55;;;;;;;11.60;10.00;;;8.30;59.60;;;;;;4953977;29;20212;-69
2022/03/11 09:13:21;;;;;;;10.00;9.03;;;8.50;59.60;;;;;;4952865;29;20214;-70
2022/03/11 09:15:47;;;;;;;11.30;9.17;;;8.80;59.60;;;;;;4953779;29;20189;-70
2022/03/11 09:18:13;;;;;;;11.67;10.50;;;9.00;59.30;;;;;;4952096;29;20193;-69
2022/03/11 09:20:40;;;;;;;13.37;9.80;;;9.20;58.10;;;;;;4953875;28;20198;-70
2022/03/11 09:23:06;;;;;;;12.50;11.20;;;9.40;57.60;;;;;;4943301;29;20189;-70
2022/03/11 09:25:32;;;;;;;11.60;10.47;;;9.60;57.80;;;;;;4952485;29;20190;-70
2022/03/11 09:27:58;;;;;;;11.40;9.30;;;9.80;57.00;;;;;;4953325;29;20663;-70
2022/03/11 09:30:24;;;;;;;12.50;10.47;;;9.60;56.80;;;;;;4953218;28;20328;-69
2022/03/11 09:32:50;;;;;;;10.77;9.67;;;9.60;57.10;;;;;;4953081;28;20300;-69
2022/03/11 09:35:16;;;;;;;11.37;10.27;;;9.90;57.00;;;;;;4953650;29;20178;-69
2022/03/11 09:37:42;;;;;;;12.10;10.80;;;10.10;57.40;;;;;;4951791;29;20550;-69
2022/03/11 09:40:12;;;;;;;13.30;11.90;;;10.40;56.40;;;;;;4953382;28;20182;-70
2022/03/11 09:42:38;;;;;;;12.07;10.90;;;10.50;55.80;;;;;;4953406;28;20334;-69
2022/03/11 09:45:04;;;;;;;16.53;13.90;;;10.40;55.20;;;;;;4952010;29;20242;-70
2022/03/11 09:47:31;;;;;;;11.70;10.60;;;10.40;55.70;;;;;;4953116;29;20186;-69
2022/03/11 09:49:57;;;;;;;13.47;12.03;;;10.70;55.00;;;;;;4952923;28;20192;-70
2022/03/11 09:52:25;;;;;;;13.10;11.80;;;10.90;54.20;;;;;;4952994;29;20228;-69
2022/03/11 09:54:51;;;;;;;11.13;10.00;;;10.90;54.30;;;;;;4952308;29;20265;-70
2022/03/11 09:57:24;;;;;;;10.67;9.20;;;11.20;53.90;;;;;;4951993;29;20276;-70
2022/03/11 09:59:51;;;;;;;14.87;12.23;;;11.20;53.50;;;;;;4953475;28;20676;-69
2022/03/11 10:02:36;;;;;;;10.13;9.13;;;11.40;53.70;;;;;;4954488;29;20670;-70
2022/03/11 10:05:02;;;;;;;12.73;10.63;;;11.90;52.10;;;;;;4953556;29;20324;-70
2022/03/11 10:07:30;;;;;;;16.83;10.53;;;11.70;52.70;;;;;;4951595;29;20192;-70
2022/03/11 10:09:57;;;;;;;12.87;9.60;;;12.30;52.20;;;;;;4953040;28;20190;-70
2022/03/11 10:12:28;;;;;;;13.67;10.23;;;12.00;51.60;;;;;;4951525;29;20244;-70
2022/03/11 10:14:59;;;;;;;11.83;10.67;;;12.10;51.70;;;;;;4964983;23;20692;-72
2022/03/11 10:17:27;;;;;;;12.30;9.70;;;12.20;51.60;;;;;;4932889;29;20616;-72
2022/03/11 10:20:01;;;;;;;14.00;10.33;;;12.20;51.50;;;;;;4933316;29;20206;-70
2022/03/11 10:22:27;;;;;;;14.13;11.80;;;12.20;51.80;;;;;;4932510;29;20199;-71
2022/03/11 10:24:53;;;;;;;20.27;13.67;;;12.80;50.90;;;;;;4933677;29;20241;-71
2022/03/11 10:27:23;;;;;;;14.93;12.60;;;13.40;50.00;;;;;;4933372;29;20187;-71
2022/03/11 10:29:50;;;;;;;17.27;15.33;;;13.30;49.00;;;;;;4933660;29;20281;-71
2022/03/11 10:32:24;;;;;;;14.27;12.87;;;13.30;49.00;;;;;;4927010;29;20242;-71
2022/03/11 10:34:50;;;;;;;12.97;11.73;;;13.30;49.40;;;;;;4914357;29;20216;-72
2022/03/11 10:37:16;;;;;;;16.17;14.57;;;13.20;49.10;;;;;;4914617;29;20191;-72
2022/03/11 10:39:46;;;;;;;20.83;16.43;;;13.40;49.00;;;;;;4916454;29;20249;-71
2022/03/11 10:42:12;;;;;;;14.20;12.80;;;13.60;49.00;;;;;;4915607;29;20194;-72
2022/03/11 10:44:59;;;;;;;12.93;11.60;;;14.00;48.50;;;;;;4914510;29;20195;-72
2022/03/11 10:47:32;;;;;;;13.50;11.50;;;14.30;47.40;;;;;;4914768;29;20478;-72
2022/03/11 10:50:01;;;;;;;14.03;10.30;;;14.50;47.50;;;;;;4933761;29;20726;-72
2022/03/11 10:52:36;;;;;;;11.10;9.83;;;14.80;47.90;;;;;;4937478;29;20718;-72
2022/03/11 10:55:21;;;;;;;18.37;10.77;;;15.40;45.60;;;;;;4938169;29;20212;-72
2022/03/11 10:57:48;;;;;;;11.60;10.50;;;15.50;45.40;;;;;;4936182;29;20517;-72
2022/03/11 11:00:22;;;;;;;10.33;9.33;;;15.70;45.20;;;;;;4929458;29;20540;-70
2022/03/11 11:02:52;;;;;;;12.07;10.87;;;15.90;44.40;;;;;;4918018;29;20670;-71
2022/03/11 11:05:18;;;;;;;14.03;11.97;;;15.70;44.70;;;;;;4918046;29;20562;-71
2022/03/11 11:07:45;;;;;;;12.13;10.83;;;15.80;44.40;;;;;;4917469;29;20195;-71
2022/03/11 11:10:12;;;;;;;13.43;11.67;;;15.60;44.50;;;;;;4916849;29;20194;-71
2022/03/11 11:12:40;;;;;;;12.60;11.33;;;15.60;44.80;;;;;;4917532;29;20305;-71
2022/03/11 11:15:07;;;;;;;13.30;11.90;;;15.70;44.20;;;;;;4917763;29;20726;-71
2022/03/11 11:17:37;;;;;;;13.20;11.70;;;15.60;44.50;;;;;;4932275;29;20187;-71
2022/03/11 11:20:04;;;;;;;14.67;11.63;;;15.60;44.40;;;;;;4936863;29;20185;-71
2022/03/11 11:22:31;;;;;;;17.47;13.33;;;15.80;44.60;;;;;;4935430;29;20380;-71
2022/03/11 11:25:01;;;;;;;17.93;14.07;;;16.40;43.30;;;;;;4929331;29;20207;-72
2022/03/11 11:27:31;;;;;;;20.23;15.40;;;17.00;42.90;;;;;;4917366;29;20249;-72
2022/03/11 11:29:59;;;;;;;17.83;16.23;;;16.90;42.30;;;;;;4917811;29;20241;-72
2022/03/11 11:32:25;;;;;;;16.40;14.93;;;17.40;41.30;;;;;;4917722;29;20702;-72
2022/03/11 11:34:50;;;;;;;21.63;19.73;;;17.10;41.50;;;;;;4917860;29;20202;-72
2022/03/11 11:37:38;;;;;;;22.60;20.47;;;17.70;41.00;;;;;;4917693;29;20186;-71
2022/03/11 11:40:32;;;;;;;19.93;18.20;;;17.50;41.10;;;;;;4927393;29;20551;-72
2022/03/11 11:43:29;;;;;;;23.30;21.00;;;17.50;40.30;;;;;;4915399;29;20202;-72
2022/03/11 11:46:04;;;;;;;22.63;20.53;;;18.00;40.60;;;;;;4917310;29;20211;-72
2022/03/11 11:48:33;;;;;;;28.00;25.30;;;18.50;39.50;;;;;;4915531;29;20186;-72
2022/03/11 11:51:00;;;;;;;26.27;24.10;;;17.90;39.70;;;;;;4916097;29;20315;-72
2022/03/11 11:54:08;;;;;;;22.00;20.17;;;18.10;39.80;;;;;;4917080;29;20309;-72
2022/03/11 11:56:38;;;;;;;20.07;18.20;;;18.50;40.00;;;;;;4917150;29;20727;-73
2022/03/11 11:59:08;;;;;;;18.83;17.23;;;19.10;38.80;;;;;;4915664;29;20183;-73
2022/03/11 12:01:46;;;;;;;17.43;15.63;;;18.90;38.30;;;;;;4916840;29;20189;-73
2022/03/11 12:04:23;;;;;;;17.67;15.10;;;19.50;37.80;;;;;;4914534;29;20278;-68
2022/03/11 12:06:56;;;;;;;15.97;14.50;;;20.10;37.30;;;;;;4919893;29;20217;-73
2022/03/11 12:09:40;;;;;;;16.77;12.90;;;20.50;36.10;;;;;;4934637;29;20624;-72
2022/03/11 12:12:10;;;;;;;15.10;11.90;;;20.40;36.00;;;;;;4935781;29;20289;-72
2022/03/11 12:14:57;;;;;;;15.03;13.17;;;19.60;35.70;;;;;;4934401;29;20206;-71
2022/03/11 12:17:56;;;;;;;14.43;11.50;;;19.90;36.20;;;;;;4934009;29;20171;-72
2022/03/11 12:20:33;;;;;;;13.37;11.53;;;20.40;35.80;;;;;;4933778;29;20246;-72
2022/03/11 12:23:11;;;;;;;16.97;10.50;;;20.40;34.90;;;;;;4911342;29;20199;-72
2022/03/11 12:25:40;;;;;;;12.90;11.40;;;20.60;35.20;;;;;;4916250;29;20678;-73
2022/03/11 12:28:25;;;;;;;13.07;11.00;;;20.70;34.90;;;;;;4915895;29;20300;-72
2022/03/11 12:30:51;;;;;;;14.80;11.73;;;19.70;35.70;;;;;;4914816;29;20183;-72
2022/03/11 12:33:18;;;;;;;16.07;10.70;;;20.30;35.60;;;;;;4914624;29;20207;-71
2022/03/11 12:35:47;;;;;;;16.53;11.70;;;20.30;35.00;;;;;;4915970;29;20199;-72
2022/03/11 12:38:18;;;;;;;16.77;12.18;;;20.60;34.60;;;;;;4914188;29;20190;-71
2022/03/11 12:40:45;;;;;;;18.53;11.93;;;20.90;34.10;;;;;;4916130;29;20190;-71
2022/03/11 12:43:12;;;;;;;13.33;11.53;;;20.90;34.20;;;;;;4915599;29;20273;-74
2022/03/11 12:45:41;;;;;;;14.87;10.93;;;20.80;34.90;;;;;;4914696;29;20214;-72
2022/03/11 12:48:10;;;;;;;17.85;12.15;;;21.60;33.70;;;;;;4912992;29;20190;-73
2022/03/11 12:50:37;;;;;;;18.63;12.43;;;21.70;33.00;;;;;;4915731;29;20211;-72
2022/03/11 12:53:06;;;;;;;13.85;10.93;;;22.00;33.30;;;;;;4915598;29;20221;-74
2022/03/11 12:55:34;;;;;;;18.03;11.97;;;22.20;32.20;;;;;;4909862;29;20210;-73
2022/03/11 12:58:05;;;;;;;12.30;10.53;;;21.40;32.90;;;;;;4914231;29;20223;-74
2022/03/11 13:00:36;;;;;;;12.20;10.93;;;21.50;33.40;;;;;;4915905;29;20183;-75
2022/03/11 13:03:08;;;;;;;16.63;10.73;;;21.20;33.30;;;;;;4922201;29;20237;-73
2022/03/11 13:05:35;;;;;;;13.43;10.70;;;21.50;33.60;;;;;;4934556;29;20215;-74
2022/03/11 13:08:13;;;;;;;11.98;10.70;;;21.20;33.90;;;;;;4934874;29;20274;-74
2022/03/11 13:10:38;;;;;;;13.27;11.38;;;22.10;33.30;;;;;;4937622;29;20198;-73
2022/03/11 13:13:05;;;;;;;13.20;10.53;;;22.80;31.90;;;;;;4924687;29;20199;-74
2022/03/11 13:15:33;;;;;;;13.37;11.73;;;22.80;31.80;;;;;;4914905;29;20766;-73
2022/03/11 13:17:58;;;;;;;11.33;10.13;;;22.50;31.90;;;;;;4922537;29;20556;-73
2022/03/11 13:20:36;;;;;;;12.30;10.88;;;22.50;32.10;;;;;;4914157;29;20185;-74
2022/03/11 13:23:14;;;;;;;15.10;10.50;;;22.50;32.20;;;;;;4915359;29;20242;-74
2022/03/11 13:26:02;;;;;;;13.93;11.07;;;23.70;30.30;;;;;;4915221;29;20203;-74
2022/03/11 13:28:31;;;;;;;11.95;10.40;;;23.30;30.70;;;;;;4914968;29;20266;-73
2022/03/11 13:31:31;;;;;;;12.48;10.82;;;23.10;30.50;;;;;;4914136;29;20273;-74
2022/03/11 13:33:57;;;;;;;16.15;11.55;;;23.60;30.00;;;;;;4883977;29;20283;-74
2022/03/11 13:36:42;;;;;;;16.23;11.60;;;23.40;30.40;;;;;;4914987;29;20290;-74
2022/03/11 13:39:12;;;;;;;19.13;11.45;;;23.40;30.40;;;;;;4914732;29;20230;-74
2022/03/11 13:41:48;;;;;;;11.70;10.45;;;23.70;30.10;;;;;;4915103;29;20276;-75
2022/03/11 13:44:20;;;;;;;15.48;10.77;;;23.60;30.00;;;;;;4918690;29;20190;-75
2022/03/11 13:47:04;;;;;;;16.08;12.02;;;24.30;29.50;;;;;;4933552;29;20190;-75
2022/03/11 13:50:06;;;;;;;12.52;11.20;;;23.30;29.90;;;;;;4932660;29;20186;-74
2022/03/11 13:52:40;;;;;;;16.02;10.95;;;23.30;29.60;;;;;;4899029;29;20233;-74
2022/03/11 13:55:10;;;;;;;19.00;11.52;;;23.50;29.90;;;;;;4914750;29;20217;-74
2022/03/11 13:57:37;;;;;;;14.80;11.40;;;22.70;30.60;;;;;;4914428;29;20179;-74
2022/03/11 14:00:18;;;;;;;14.23;11.90;;;22.80;30.70;;;;;;4913607;29;20183;-74
2022/03/11 14:02:44;;;;;;;14.70;11.32;;;22.00;31.10;;;;;;4913575;29;20187;-74
2022/03/11 14:05:14;;;;;;;12.43;9.63;;;21.70;31.80;;;;;;4914637;29;20228;-74
2022/03/11 14:07:41;;;;;;;13.43;9.50;;;20.90;32.50;;;;;;4914167;29;20254;-74
2022/03/11 14:10:20;;;;;;;15.17;11.20;;;19.70;34.20;;;;;;4915022;29;20294;-74
2022/03/11 14:12:57;;;;;;;14.77;11.67;;;18.50;36.00;;;;;;4913489;29;20222;-74
2022/03/11 14:15:37;;;;;;;13.77;11.80;;;18.70;36.90;;;;;;4913976;29;20294;-74
2022/03/11 14:18:03;;;;;;;15.13;11.30;;;19.50;36.00;;;;;;4913106;29;20194;-73
2022/03/11 14:20:31;;;;;;;16.13;11.90;;;19.70;35.40;;;;;;4914781;29;20241;-74
2022/03/11 14:22:57;;;;;;;14.30;12.20;;;19.70;35.30;;;;;;4914370;29;20194;-73
2022/03/11 14:25:23;;;;;;;16.03;12.27;;;19.30;35.90;;;;;;4928124;29;20206;-73
2022/03/11 14:27:49;;;;;;;16.03;12.10;;;19.00;35.80;;;;;;4935343;29;20187;-73
2022/03/11 14:30:15;;;;;;;12.23;10.67;;;18.30;37.10;;;;;;4937481;29;20186;-72
2022/03/11 14:32:41;;;;;;;14.30;12.57;;;17.70;37.80;;;;;;4937177;29;20622;-73
2022/03/11 14:35:07;;;;;;;14.40;12.20;;;17.60;38.40;;;;;;4935054;29;20221;-73
2022/03/11 14:37:32;;;;;;;19.20;13.70;;;18.20;37.70;;;;;;4934314;29;20216;-73
2022/03/11 14:39:58;;;;;;;15.33;13.17;;;17.70;37.80;;;;;;4917740;29;20186;-73
2022/03/11 14:42:25;;;;;;;16.47;14.63;;;17.50;38.60;;;;;;4914519;29;20207;-74
2022/03/11 14:44:51;;;;;;;21.07;14.60;;;17.40;38.60;;;;;;4917007;29;20289;-74
2022/03/11 14:47:17;;;;;;;15.80;13.27;;;17.70;38.80;;;;;;4918977;29;20187;-74
2022/03/11 14:49:47;;;;;;;16.13;13.13;;;18.80;37.20;;;;;;4928636;29;20278;-73
2022/03/11 14:52:15;;;;;;;15.20;12.27;;;18.90;36.30;;;;;;4917556;29;20221;-75
2022/03/11 14:54:43;;;;;;;15.03;12.73;;;19.70;35.80;;;;;;4919252;29;20195;-74
2022/03/11 14:57:09;;;;;;;16.97;12.00;;;20.40;34.60;;;;;;4928644;29;20195;-75
2022/03/11 14:59:35;;;;;;;15.13;11.43;;;20.80;33.10;;;;;;4919868;29;20243;-75
2022/03/11 15:02:01;;;;;;;21.47;12.13;;;20.80;32.90;;;;;;4918846;29;20198;-72
2022/03/11 15:04:27;;;;;;;13.90;11.53;;;20.80;32.90;;;;;;4917324;29;20203;-73
2022/03/11 15:06:52;;;;;;;14.30;12.33;;;19.50;34.20;;;;;;4917531;29;20322;-75
2022/03/11 15:09:19;;;;;;;14.17;12.67;;;18.90;35.80;;;;;;4917666;29;20684;-76
2022/03/11 15:11:48;;;;;;;15.10;12.57;;;18.90;35.30;;;;;;4912944;29;20207;-75
2022/03/11 15:14:16;;;;;;;14.03;12.40;;;18.50;36.00;;;;;;4917661;29;20183;-73
2022/03/11 15:16:42;;;;;;;18.13;12.83;;;17.90;37.10;;;;;;4916528;29;20191;-74
2022/03/11 15:19:08;;;;;;;14.33;12.80;;;16.90;38.10;;;;;;4917338;29;20684;-75
2022/03/11 15:21:36;;;;;;;19.27;17.37;;;16.20;39.30;;;;;;4917413;29;20266;-74
2022/03/11 15:24:05;;;;;;;23.50;21.27;;;15.70;40.80;;;;;;4916453;29;20194;-74
2022/03/11 15:26:31;;;;;;;28.80;26.17;;;15.30;41.30;;;;;;4917376;29;20195;-74
2022/03/11 15:29:00;;;;;;;34.53;31.33;;;14.90;41.80;;;;;;4923676;29;20282;-73
2022/03/11 15:31:28;;;;;;;31.80;28.87;;;14.80;42.70;;;;;;4933534;29;20207;-75
2022/03/11 15:33:54;;;;;;;33.87;31.27;;;14.60;42.90;;;;;;4918160;29;20187;-75
2022/03/11 15:36:19;;;;;;;32.70;30.20;;;14.40;43.00;;;;;;4928551;29;20290;-75
2022/03/11 15:38:46;;;;;;;32.47;29.87;;;14.40;43.10;;;;;;4916540;29;20291;-75
2022/03/11 15:41:11;;;;;;;33.23;30.83;;;14.40;42.80;;;;;;4917162;29;20196;-74
2022/03/11 15:43:37;;;;;;;32.40;30.00;;;14.50;42.70;;;;;;4915899;29;20194;-75
2022/03/11 15:46:03;;;;;;;33.43;31.00;;;14.50;42.00;;;;;;4913537;29;20277;-74
2022/03/11 15:48:29;;;;;;;30.67;28.27;;;14.40;42.10;;;;;;4901378;29;20191;-74
2022/03/11 15:50:54;;;;;;;30.77;28.27;;;14.40;42.60;;;;;;4901185;29;20206;-74
2022/03/11 15:53:20;;;;;;;29.33;27.00;;;14.40;42.60;;;;;;4935269;29;20709;-74
2022/03/11 15:55:46;;;;;;;29.87;27.27;;;14.30;43.00;;;;;;4934395;29;20210;-74
2022/03/11 15:58:12;;;;;;;28.33;26.00;;;14.10;43.20;;;;;;4935118;29;20190;-73
2022/03/11 16:00:38;;;;;;;28.10;25.30;;;14.00;43.60;;;;;;4935260;29;20257;-74
2022/03/11 16:03:03;;;;;;;24.17;21.67;;;13.80;43.70;;;;;;4935477;29;20710;-74
2022/03/11 16:05:29;;;;;;;23.40;21.37;;;13.70;44.10;;;;;;4927761;29;20207;-74
2022/03/11 16:07:55;;;;;;;22.73;20.40;;;13.60;44.10;;;;;;4915321;29;20515;-74
2022/03/11 16:10:28;;;;;;;27.27;24.47;;;13.50;44.70;;;;;;4916409;29;20194;-73
2022/03/11 16:12:55;;;;;;;24.67;22.03;;;13.40;44.10;;;;;;4928521;29;20234;-74
2022/03/11 16:15:22;;;;;;;16.83;15.13;;;13.30;44.60;;;;;;4954152;23;20238;-74
2022/03/11 16:17:49;;;;;;;20.33;15.97;;;13.20;44.80;;;;;;4933184;29;20907;-71
2022/03/11 16:20:15;;;;;;;18.23;15.87;;;13.10;44.80;;;;;;4936061;29;20710;-71
2022/03/11 16:22:41;;;;;;;18.57;13.70;;;12.90;44.90;;;;;;4935804;29;20187;-72
2022/03/11 16:25:07;;;;;;;17.50;14.50;;;12.80;45.10;;;;;;4930359;29;20203;-73
2022/03/11 16:27:34;;;;;;;14.73;12.60;;;12.70;44.70;;;;;;4914901;29;20214;-71
2022/03/11 16:29:59;;;;;;;18.03;13.00;;;12.50;45.10;;;;;;4915214;29;20199;-72
2022/03/11 16:32:26;;;;;;;14.70;11.93;;;12.30;44.90;;;;;;4913585;29;20211;-72
2022/03/11 16:34:52;;;;;;;18.40;12.40;;;12.20;45.40;;;;;;4910359;29;20195;-72
2022/03/11 16:37:20;;;;;;;17.20;13.53;;;12.10;45.70;;;;;;4913038;29;20194;-73
2022/03/11 16:39:46;;;;;;;15.60;13.83;;;12.00;46.90;;;;;;4913591;29;20194;-72